Travis Air Force Base
KSUU : now visible

Airfield :











YOU CAN JOIN US ON...

 
LOGIN :

Register | Disclaimer

   EN    FR    IT 

 









Legend :    VFR   Marginal VFR   IFR   Intensive IFR   Very Intensive IFR
Visi :
Ceiling :
>= 8 km
>= 3000ft
5 to 8 km
1000 to 3000 ft
1500m to 5 km
500 to 1000 ft
800 to 1500m
200 to 500 ft
< 800m
< 200 ft
Symbols :   Thunderstorms  Fog  Heavy snow  Heavy precipitations  Wind > 20 kt






- Airport Elevation : 62 ft


KSUU - Travis Air Force Base

CURRENT METAR :
  • 071956Z AUTO 28003KT 10SM CLR 19/07 A3011 RMK AO2 SLP203 T01920073 $

EXPIRED METARs :
  • 071858Z AUTO 33003KT 10SM CLR 19/08 A3012 RMK AO2 SLP206 T01860083 $
  • 071833Z AUTO 31003KT 10SM SCT027 18/08 A3012 RMK AO2 SLP206 $
  • 071828Z AUTO 30004KT 10SM BKN027 18/09 A3012 RMK AO2 SLP206 $

TAF TAF KSUU
Valid from the 07 at 19:00 until the 09 at 01:00 UTC


071900Z 0719/0901 VRB06KT 9999 SCT030 BKN060 QNH3002INS
BECMG 0800/0801 24012KT 9999 FEW030 SCT060 QNH2985INS
BECMG 0817/0818 24012G18KT 9999 SCT020 QNH2990INS TX20/0722Z TN06/0814Z



MET'MAP, your aeronautical weather chart ! - Copyright ORBIFLY December 2007 - Disclaimer

ORBIFLY MET'MAP TEAM :

Programming & Development : Alexandra Zaïnal
Concept & original design : Baudouin d'Aumeries
Assistance for programming : Marc-Olivier Méhu
Technical & hardware support : Manuel Goepfert

Contact : metmap@orbifly.com




SOURCES & CREDITS :

   NOAA       Earth
Advisory